createdAt,value
2018-11-28T00:00:22.223Z,4.10
2018-11-28T00:02:50.813Z,4.10
2018-11-28T00:05:19.544Z,4.20
2018-11-28T00:07:48.011Z,4.20
2018-11-28T00:10:16.409Z,4.30
2018-11-28T00:12:44.787Z,4.30
2018-11-28T00:15:14.126Z,4.40
2018-11-28T00:17:42.531Z,4.40
2018-11-28T00:20:14.023Z,4.50
2018-11-28T00:22:42.973Z,4.60
2018-11-28T00:25:12.441Z,4.60
2018-11-28T00:27:40.844Z,4.70
2018-11-28T00:30:11.313Z,4.80
2018-11-28T00:32:39.695Z,4.80
2018-11-28T00:35:09.686Z,4.90
2018-11-28T00:37:38.608Z,4.90
2018-11-28T00:40:08.531Z,5.00
2018-11-28T00:42:36.921Z,4.90
2018-11-28T00:45:08.108Z,5.00
2018-11-28T00:47:36.498Z,5.00
2018-11-28T00:50:06.915Z,5.00
2018-11-28T00:52:35.320Z,5.10
2018-11-28T00:55:04.037Z,5.10
2018-11-28T00:57:32.414Z,5.10
2018-11-28T01:00:00.805Z,5.20
2018-11-28T01:02:29.451Z,5.20
2018-11-28T01:04:57.822Z,5.30
2018-11-28T01:07:26.209Z,5.30
2018-11-28T01:09:55.183Z,5.30
2018-11-28T01:12:23.576Z,5.40
2018-11-28T01:14:51.964Z,5.50
2018-11-28T01:17:20.342Z,5.50
2018-11-28T01:19:48.766Z,5.50
2018-11-28T01:22:17.467Z,5.60
2018-11-28T01:24:45.837Z,5.60
2018-11-28T01:27:14.223Z,5.70
2018-11-28T01:29:42.632Z,5.70
2018-11-28T01:32:11.015Z,5.70
2018-11-28T01:34:39.599Z,5.70
2018-11-28T01:37:08.010Z,5.70
2018-11-28T01:39:36.383Z,5.70
2018-11-28T01:42:05.044Z,5.70
2018-11-28T01:44:33.425Z,5.70
2018-11-28T01:47:01.818Z,5.80
2018-11-28T01:49:30.182Z,5.80
2018-11-28T01:51:58.617Z,5.80
2018-11-28T01:54:26.986Z,5.80
2018-11-28T01:56:55.672Z,5.90
2018-11-28T01:59:24.054Z,5.90
2018-11-28T02:01:52.424Z,5.90
2018-11-28T02:04:20.807Z,6.00
2018-11-28T02:06:49.211Z,6.00
2018-11-28T02:09:17.654Z,6.00
2018-11-28T02:11:46.017Z,6.00
2018-11-28T02:14:14.436Z,6.00
2018-11-28T02:16:43.200Z,6.00
2018-11-28T02:19:11.692Z,6.00
2018-11-28T02:21:40.090Z,6.00
2018-11-28T02:24:08.452Z,6.10
2018-11-28T02:26:36.822Z,6.10
2018-11-28T02:29:05.614Z,6.10
2018-11-28T02:31:34.174Z,6.10
2018-11-28T02:34:02.714Z,6.10
2018-11-28T02:36:31.125Z,6.10
2018-11-28T02:39:00.788Z,6.10
2018-11-28T02:41:29.166Z,6.20
2018-11-28T02:43:57.650Z,6.20
2018-11-28T02:46:29.375Z,6.20
2018-11-28T02:48:57.760Z,6.20
2018-11-28T02:51:26.487Z,6.20
2018-11-28T02:53:55.123Z,6.20
2018-11-28T02:56:23.585Z,6.20
2018-11-28T02:58:52.022Z,6.10
2018-11-28T03:01:20.394Z,6.10
2018-11-28T03:03:48.772Z,6.10
2018-11-28T03:06:17.193Z,6.10
2018-11-28T03:08:45.549Z,6.10
2018-11-28T03:11:14.103Z,6.20
2018-11-28T03:13:42.509Z,6.20
2018-11-28T03:16:17.994Z,6.30
2018-11-28T03:18:47.052Z,6.30
2018-11-28T03:21:16.028Z,6.30
2018-11-28T03:23:44.657Z,6.30
2018-11-28T03:26:13.089Z,6.30
2018-11-28T03:28:41.462Z,6.30
2018-11-28T03:31:09.846Z,6.30
2018-11-28T03:33:38.245Z,6.30
2018-11-28T03:36:06.867Z,6.40
2018-11-28T03:38:35.528Z,6.30
2018-11-28T03:41:04.280Z,6.40
2018-11-28T03:43:32.871Z,6.40
2018-11-28T03:46:01.245Z,6.40
2018-11-28T03:48:29.665Z,6.40
2018-11-28T03:50:58.040Z,6.40
2018-11-28T03:53:26.422Z,6.50
2018-11-28T03:55:55.401Z,6.50
2018-11-28T03:58:23.773Z,6.50
2018-11-28T04:00:52.464Z,6.50
2018-11-28T04:03:20.865Z,6.50
2018-11-28T04:05:49.229Z,6.50
2018-11-28T04:08:17.834Z,6.50
2018-11-28T04:10:46.224Z,6.50
2018-11-28T04:13:14.588Z,6.60
2018-11-28T04:15:42.953Z,6.60
2018-11-28T04:18:11.347Z,6.60
2018-11-28T04:20:39.836Z,6.60
2018-11-28T04:23:08.211Z,6.60
2018-11-28T04:25:36.604Z,6.60
2018-11-28T04:28:05.280Z,6.60
2018-11-28T04:30:33.654Z,6.60
2018-11-28T04:33:02.039Z,6.70
2018-11-28T04:35:30.440Z,6.60
2018-11-28T04:37:58.810Z,6.60
2018-11-28T04:40:27.223Z,6.60
2018-11-28T04:42:55.592Z,6.60
2018-11-28T04:45:25.067Z,6.70
2018-11-28T04:47:54.783Z,6.70
2018-11-28T04:50:23.208Z,6.70
2018-11-28T04:52:51.842Z,6.70
2018-11-28T04:55:20.903Z,6.70
2018-11-28T04:57:49.330Z,6.70
2018-11-28T05:00:20.013Z,6.70
2018-11-28T05:02:48.732Z,6.70
2018-11-28T05:05:17.142Z,6.70
2018-11-28T05:07:46.327Z,6.70
2018-11-28T05:10:25.561Z,6.80
2018-11-28T05:12:54.900Z,6.80
2018-11-28T05:15:24.448Z,6.90
2018-11-28T05:17:53.763Z,6.80
2018-11-28T05:20:24.251Z,6.90
2018-11-28T05:22:52.642Z,6.90
2018-11-28T05:25:21.977Z,6.90
2018-11-28T05:27:51.282Z,6.90
2018-11-28T05:30:27.892Z,6.90
2018-11-28T05:32:56.377Z,6.90
2018-11-28T05:35:28.346Z,6.90
2018-11-28T05:37:57.327Z,6.90
2018-11-28T05:40:26.841Z,6.80
2018-11-28T05:42:55.636Z,6.80
2018-11-28T05:45:24.088Z,6.80
2018-11-28T05:47:52.764Z,6.80
2018-11-28T05:50:22.179Z,6.80
2018-11-28T05:52:50.899Z,6.80
2018-11-28T05:55:20.660Z,6.80
2018-11-28T05:57:49.084Z,6.80
2018-11-28T06:00:37.936Z,6.80
2018-11-28T06:03:08.555Z,6.90
2018-11-28T06:05:36.946Z,6.80
2018-11-28T06:08:05.828Z,6.90
2018-11-28T06:10:34.324Z,6.90
2018-11-28T06:13:02.712Z,6.90
2018-11-28T06:15:31.397Z,7.00
2018-11-28T06:17:59.774Z,6.90
2018-11-28T06:20:28.176Z,7.00
2018-11-28T06:22:56.787Z,7.00
2018-11-28T06:25:25.493Z,7.00
2018-11-28T06:27:53.894Z,6.90
2018-11-28T06:30:22.297Z,6.90
2018-11-28T06:32:51.622Z,6.90
2018-11-28T06:35:19.362Z,7.00
2018-11-28T06:37:48.036Z,7.00
2018-11-28T06:40:23.627Z,7.00
2018-11-28T06:42:46.809Z,6.90
2018-11-28T06:45:16.484Z,6.90
2018-11-28T06:47:44.934Z,6.90
2018-11-28T06:50:16.065Z,6.90
2018-11-28T06:52:45.459Z,6.90
2018-11-28T06:55:15.939Z,6.90
2018-11-28T06:57:44.336Z,6.90
2018-11-28T07:00:15.070Z,6.90
2018-11-28T07:02:43.468Z,6.80
2018-11-28T07:05:12.427Z,6.80
2018-11-28T07:07:40.906Z,6.80
2018-11-28T07:10:14.702Z,6.80
2018-11-28T07:12:43.071Z,6.80
2018-11-28T07:15:14.909Z,6.80
2018-11-28T07:17:43.841Z,6.80
2018-11-28T07:20:14.101Z,6.80
2018-11-28T07:22:42.536Z,6.80
2018-11-28T07:25:13.015Z,6.80
2018-11-28T07:27:45.172Z,6.80
2018-11-28T07:30:15.329Z,6.80
2018-11-28T07:32:43.758Z,6.80
2018-11-28T07:35:12.981Z,6.90
2018-11-28T07:37:41.694Z,6.80
2018-11-28T07:40:13.531Z,6.80
2018-11-28T07:42:43.748Z,6.90
2018-11-28T07:45:12.906Z,6.80
2018-11-28T07:47:41.306Z,6.80
2018-11-28T07:50:10.323Z,6.90
2018-11-28T07:52:39.114Z,6.80
2018-11-28T07:55:10.479Z,6.90
2018-11-28T07:57:39.185Z,6.90
2018-11-28T08:00:11.648Z,6.90
2018-11-28T08:02:40.195Z,6.80
2018-11-28T08:05:09.655Z,6.80
2018-11-28T08:07:38.198Z,6.90
2018-11-28T08:10:09.057Z,6.90
2018-11-28T08:12:37.458Z,6.90
2018-11-28T08:15:07.370Z,6.90
2018-11-28T08:17:36.429Z,6.90
2018-11-28T08:20:05.352Z,6.90
2018-11-28T08:22:33.758Z,6.90
2018-11-28T08:25:02.503Z,6.90
2018-11-28T08:27:30.842Z,6.90
2018-11-28T08:29:59.472Z,6.90
2018-11-28T08:32:27.935Z,6.90
2018-11-28T08:34:56.345Z,6.90
2018-11-28T08:37:24.904Z,6.90
2018-11-28T08:39:53.612Z,7.00
2018-11-28T08:42:21.981Z,6.90
2018-11-28T08:44:50.404Z,7.00
2018-11-28T08:47:19.076Z,7.00
2018-11-28T08:49:47.468Z,7.00
2018-11-28T08:52:15.845Z,7.10
2018-11-28T08:54:44.496Z,7.10
2018-11-28T08:57:13.143Z,7.10
2018-11-28T08:59:41.528Z,7.20
2018-11-28T09:02:09.944Z,7.20
2018-11-28T09:04:38.313Z,7.20
2018-11-28T09:07:06.742Z,7.20
2018-11-28T09:09:35.127Z,7.30
2018-11-28T09:12:03.582Z,7.30
2018-11-28T09:14:31.970Z,7.30
2018-11-28T09:17:00.532Z,7.30
2018-11-28T09:19:28.917Z,7.40
2018-11-28T09:21:57.310Z,7.40
2018-11-28T09:24:25.687Z,7.40
2018-11-28T09:26:54.061Z,7.50
2018-11-28T09:29:22.465Z,7.50
2018-11-28T09:31:50.827Z,7.50
2018-11-28T09:34:19.203Z,7.50
2018-11-28T09:36:47.915Z,7.50
2018-11-28T09:39:16.292Z,7.60
2018-11-28T09:41:44.663Z,7.60
2018-11-28T09:44:13.054Z,7.60
2018-11-28T09:46:41.672Z,7.70
2018-11-28T09:49:10.299Z,7.70
2018-11-28T09:51:38.690Z,7.80
2018-11-28T09:54:07.066Z,7.80
2018-11-28T09:56:35.416Z,7.80
2018-11-28T09:59:03.901Z,7.80
2018-11-28T10:01:32.293Z,7.80
2018-11-28T10:04:00.667Z,7.90
2018-11-28T10:06:29.069Z,7.90
2018-11-28T10:08:57.718Z,7.90
2018-11-28T10:11:26.104Z,8.00
2018-11-28T10:13:54.534Z,8.00
2018-11-28T10:16:22.896Z,8.00
2018-11-28T10:18:51.262Z,8.10
2018-11-28T10:21:19.662Z,8.10
2018-11-28T10:23:48.330Z,8.10
2018-11-28T10:26:16.982Z,8.10
2018-11-28T10:28:45.390Z,8.10
2018-11-28T10:31:13.765Z,8.10
2018-11-28T10:33:42.136Z,8.20
2018-11-28T10:36:10.817Z,8.20
2018-11-28T10:38:39.218Z,8.20
2018-11-28T10:41:08.439Z,8.20
2018-11-28T10:43:36.281Z,8.20
2018-11-28T10:46:04.667Z,8.40
2018-11-28T10:48:33.671Z,8.40
2018-11-28T10:51:02.071Z,8.40
2018-11-28T10:53:30.740Z,8.50
2018-11-28T10:55:59.409Z,8.50
2018-11-28T10:58:28.415Z,8.40
2018-11-28T11:01:02.336Z,8.50
2018-11-28T11:03:36.269Z,8.50
2018-11-28T11:06:10.531Z,8.40
2018-11-28T11:08:44.313Z,8.50
2018-11-28T11:11:17.926Z,8.50
2018-11-28T11:14:51.938Z,8.40
2018-11-28T11:17:20.456Z,8.30
2018-11-28T11:19:48.849Z,8.30
2018-11-28T11:22:17.248Z,8.30
2018-11-28T11:24:45.650Z,8.40
2018-11-28T11:27:14.124Z,8.30
2018-11-28T11:29:42.707Z,8.30
2018-11-28T11:32:11.336Z,8.30
2018-11-28T11:34:39.742Z,8.40
2018-11-28T11:37:08.731Z,8.40
2018-11-28T11:39:37.695Z,8.50
2018-11-28T11:42:06.485Z,8.50
2018-11-28T11:44:35.095Z,8.50
2018-11-28T11:47:03.474Z,8.60
2018-11-28T11:49:31.881Z,8.60
2018-11-28T11:52:00.315Z,8.60
2018-11-28T11:54:28.741Z,8.70
2018-11-28T11:56:57.292Z,8.60
2018-11-28T11:59:25.703Z,8.60
2018-11-28T12:01:55.022Z,8.60
2018-11-28T12:04:23.253Z,8.60
2018-11-28T12:06:51.677Z,8.50
2018-11-28T12:09:20.089Z,8.60
2018-11-28T12:11:48.464Z,8.60
2018-11-28T12:14:16.910Z,8.60
2018-11-28T12:16:45.602Z,8.70
2018-11-28T12:19:13.953Z,8.70
2018-11-28T12:21:43.529Z,8.70
2018-11-28T12:24:10.824Z,8.70
2018-11-28T12:26:39.479Z,8.70
2018-11-28T12:29:08.097Z,8.70
2018-11-28T12:31:36.552Z,8.60
2018-11-28T12:34:05.502Z,8.70
2018-11-28T12:36:33.903Z,8.60
2018-11-28T12:39:02.553Z,8.70
2018-11-28T12:41:30.928Z,8.60
2018-11-28T12:43:59.360Z,8.50
2018-11-28T12:46:27.778Z,8.60
2018-11-28T12:48:56.196Z,8.50
2018-11-28T12:51:24.728Z,8.50
2018-11-28T12:53:53.371Z,8.40
2018-11-28T12:56:21.761Z,8.40
2018-11-28T12:58:50.169Z,8.40
2018-11-28T13:01:18.542Z,8.40
2018-11-28T13:03:46.935Z,8.30
2018-11-28T13:06:15.915Z,8.30
2018-11-28T13:08:44.600Z,8.30
2018-11-28T13:11:12.978Z,8.20
2018-11-28T13:13:41.383Z,8.20
2018-11-28T13:16:10.066Z,8.20
2018-11-28T13:18:38.761Z,8.20
2018-11-28T13:21:07.216Z,8.20
2018-11-28T13:23:36.078Z,8.10
2018-11-28T13:26:04.780Z,8.10
2018-11-28T13:28:33.421Z,8.20
2018-11-28T13:31:01.796Z,8.10
2018-11-28T13:33:30.222Z,8.10
2018-11-28T13:35:58.642Z,8.10
2018-11-28T13:38:27.026Z,8.10
2018-11-28T13:40:55.410Z,8.10
2018-11-28T13:43:24.110Z,8.10
2018-11-28T13:45:52.508Z,8.10
2018-11-28T13:48:21.143Z,8.00
2018-11-28T13:50:49.720Z,8.00
2018-11-28T13:53:18.618Z,8.00
2018-11-28T13:56:57.207Z,7.90
2018-11-28T13:58:23.955Z,8.00
2018-11-28T14:00:52.344Z,8.00
2018-11-28T14:03:20.788Z,8.00
2018-11-28T14:05:49.171Z,8.00
2018-11-28T14:08:17.559Z,8.10
2018-11-28T14:10:46.281Z,8.00
2018-11-28T14:13:15.367Z,8.00
2018-11-28T14:15:43.079Z,8.00
2018-11-28T14:18:13.070Z,8.10
2018-11-28T14:20:41.442Z,8.00
2018-11-28T14:23:09.875Z,8.10
2018-11-28T14:25:38.544Z,8.00
2018-11-28T14:28:07.385Z,8.00
2018-11-28T14:30:36.651Z,8.00
2018-11-28T14:33:05.128Z,8.00
2018-11-28T14:35:34.232Z,8.10
2018-11-28T14:38:02.858Z,8.10
2018-11-28T14:40:31.472Z,8.10
2018-11-28T14:43:00.259Z,8.10
2018-11-28T14:45:29.503Z,8.10
2018-11-28T14:47:57.972Z,8.10
2018-11-28T14:50:29.175Z,8.10
2018-11-28T14:52:59.672Z,8.20
2018-11-28T14:55:30.102Z,8.20
2018-11-28T14:57:58.840Z,8.20
2018-11-28T15:00:28.300Z,8.20
2018-11-28T15:03:01.080Z,8.20
2018-11-28T15:05:54.406Z,8.10
2018-11-28T15:08:22.983Z,8.20
2018-11-28T15:11:22.044Z,8.10
2018-11-28T15:13:50.428Z,8.10
2018-11-28T15:16:18.805Z,8.10
2018-11-28T15:18:47.277Z,8.10
2018-11-28T15:21:15.723Z,8.10
2018-11-28T15:23:44.331Z,8.10
2018-11-28T15:26:12.761Z,8.10
2018-11-28T15:28:41.133Z,8.20
2018-11-28T15:31:09.516Z,8.20
2018-11-28T15:33:38.286Z,8.20
2018-11-28T15:36:06.695Z,8.20
2018-11-28T15:38:35.307Z,8.20
2018-11-28T15:41:04.021Z,8.20
2018-11-28T15:43:32.644Z,8.20
2018-11-28T15:46:01.010Z,8.20
2018-11-28T15:48:29.700Z,8.20
2018-11-28T15:50:58.418Z,8.20
2018-11-28T15:53:26.812Z,8.30
2018-11-28T15:55:55.807Z,8.20
2018-11-28T15:58:24.212Z,8.20
2018-11-28T16:00:52.621Z,8.30
2018-11-28T16:03:21.213Z,8.30
2018-11-28T16:05:49.631Z,8.20
2018-11-28T16:08:18.070Z,8.30
2018-11-28T16:10:46.701Z,8.20
2018-11-28T16:13:16.663Z,8.20
2018-11-28T16:15:59.403Z,8.30
2018-11-28T16:18:28.382Z,8.30
2018-11-28T16:20:57.099Z,8.30
2018-11-28T16:23:25.557Z,8.30
2018-11-28T16:25:53.951Z,8.40
2018-11-28T16:28:22.337Z,8.40
2018-11-28T16:30:50.985Z,8.30
2018-11-28T16:33:19.553Z,8.40
2018-11-28T16:35:47.954Z,8.40
2018-11-28T16:38:16.378Z,8.40
2018-11-28T16:40:44.764Z,8.40
2018-11-28T16:43:13.163Z,8.40
2018-11-28T16:45:41.967Z,8.40
2018-11-28T16:48:10.033Z,8.40
2018-11-28T16:50:38.608Z,8.40
2018-11-28T16:53:07.079Z,8.50
2018-11-28T16:55:35.459Z,8.50
2018-11-28T16:58:03.882Z,8.50
2018-11-28T17:00:33.087Z,8.50
2018-11-28T17:03:01.464Z,8.50
2018-11-28T17:05:29.830Z,8.50
2018-11-28T17:07:58.236Z,8.50
2018-11-28T17:10:28.893Z,8.50
2018-11-28T17:12:58.221Z,8.50
2018-11-28T17:15:26.694Z,8.50
2018-11-28T17:17:55.357Z,8.50
2018-11-28T17:20:24.992Z,8.50
2018-11-28T17:22:54.576Z,8.50
2018-11-28T17:25:25.049Z,8.50
2018-11-28T17:27:53.746Z,8.50
2018-11-28T17:30:23.416Z,8.50
2018-11-28T17:32:51.862Z,8.50
2018-11-28T17:35:20.478Z,8.50
2018-11-28T17:37:48.930Z,8.60
2018-11-28T17:40:18.264Z,8.60
2018-11-28T17:42:48.320Z,8.60
2018-11-28T17:45:17.653Z,8.60
2018-11-28T17:47:46.324Z,8.60
2018-11-28T17:50:19.638Z,8.60
2018-11-28T17:52:55.663Z,8.60
2018-11-28T17:55:24.549Z,8.60
2018-11-28T17:57:52.931Z,8.60
2018-11-28T18:00:21.338Z,8.60
2018-11-28T18:02:49.796Z,8.60
2018-11-28T18:05:18.562Z,8.60
2018-11-28T18:07:47.830Z,8.60
2018-11-28T18:10:18.347Z,8.70
2018-11-28T18:12:57.922Z,8.70
2018-11-28T18:15:26.481Z,8.70
2018-11-28T18:17:56.260Z,8.70
2018-11-28T18:20:25.083Z,8.70
2018-11-28T18:22:53.763Z,8.70
2018-11-28T18:25:23.197Z,8.80
2018-11-28T18:27:51.600Z,8.80
2018-11-28T18:30:20.179Z,8.80
2018-11-28T18:32:48.557Z,8.80
2018-11-28T18:35:16.964Z,8.90
2018-11-28T18:37:45.421Z,8.90
2018-11-28T18:40:13.842Z,8.90
2018-11-28T18:42:42.852Z,9.00
2018-11-28T18:45:14.591Z,9.00
2018-11-28T18:47:43.042Z,9.00
2018-11-28T18:50:12.248Z,9.10
2018-11-28T18:52:40.690Z,9.10
2018-11-28T18:55:16.488Z,9.20
2018-11-28T18:57:42.202Z,9.30
2018-11-28T19:00:16.417Z,9.40
2018-11-28T19:02:44.823Z,9.40
2018-11-28T19:05:13.469Z,9.40
2018-11-28T19:07:42.168Z,9.40
2018-11-28T19:10:16.033Z,9.40
2018-11-28T19:12:44.421Z,9.40
2018-11-28T19:15:14.326Z,9.50
2018-11-28T19:17:43.270Z,9.50
2018-11-28T19:20:14.493Z,9.50
2018-11-28T19:22:43.687Z,9.50
2018-11-28T19:25:13.853Z,9.50
2018-11-28T19:27:42.287Z,9.50
2018-11-28T19:30:13.868Z,9.50
2018-11-28T19:32:42.328Z,9.50
2018-11-28T19:35:12.601Z,9.50
2018-11-28T19:37:42.183Z,9.60
2018-11-28T19:40:19.574Z,9.50
2018-11-28T19:42:48.203Z,9.60
2018-11-28T19:45:17.019Z,9.60
2018-11-28T19:47:45.738Z,9.60
2018-11-28T19:50:20.813Z,9.60
2018-11-28T19:52:49.440Z,9.60
2018-11-28T19:55:17.993Z,9.50
2018-11-28T19:57:46.834Z,9.60
2018-11-28T20:00:16.617Z,9.50
2018-11-28T20:02:46.095Z,9.50
2018-11-28T20:05:14.701Z,9.60
2018-11-28T20:07:44.609Z,9.50
2018-11-28T20:10:15.402Z,9.60
2018-11-28T20:12:43.945Z,9.60
2018-11-28T20:15:15.770Z,9.60
2018-11-28T20:17:49.051Z,9.60
2018-11-28T20:20:18.082Z,9.60
2018-11-28T20:22:46.804Z,9.60
2018-11-28T20:25:23.035Z,9.70
2018-11-28T20:27:55.306Z,9.70
2018-11-28T20:30:26.675Z,9.80
2018-11-28T20:32:55.491Z,9.80
2018-11-28T20:35:24.133Z,9.80
2018-11-28T20:37:52.801Z,9.80
2018-11-28T20:40:21.509Z,9.90
2018-11-28T20:42:51.424Z,9.90
2018-11-28T20:45:20.381Z,9.90
2018-11-28T20:47:49.173Z,9.90
2018-11-28T20:50:35.260Z,9.90
2018-11-28T20:53:06.811Z,9.90
2018-11-28T20:55:35.644Z,9.90
2018-11-28T20:58:04.453Z,10.00
2018-11-28T21:00:33.227Z,10.00
2018-11-28T21:03:02.502Z,10.00
2018-11-28T21:05:31.703Z,10.00
2018-11-28T21:08:00.516Z,10.00
2018-11-28T21:10:34.535Z,10.00
2018-11-28T21:13:03.273Z,10.10
2018-11-28T21:15:31.994Z,10.00
2018-11-28T21:18:01.068Z,10.10
2018-11-28T21:20:30.338Z,10.10
2018-11-28T21:23:00.360Z,10.10
2018-11-28T21:25:29.937Z,10.10
2018-11-28T21:27:58.607Z,10.20
2018-11-28T21:30:27.259Z,10.20
2018-11-28T21:32:56.183Z,10.10
2018-11-28T21:35:28.846Z,10.20
2018-11-28T21:37:57.543Z,10.20
2018-11-28T21:40:26.217Z,10.20
2018-11-28T21:42:55.083Z,10.20
2018-11-28T21:45:24.657Z,10.20
2018-11-28T21:47:53.351Z,10.30
2018-11-28T21:50:21.979Z,10.30
2018-11-28T21:52:50.804Z,10.20
2018-11-28T21:55:21.396Z,10.30
2018-11-28T21:57:50.183Z,10.30
2018-11-28T22:00:23.625Z,10.30
2018-11-28T22:02:52.426Z,10.30
2018-11-28T22:05:21.107Z,10.30
2018-11-28T22:07:49.791Z,10.40
2018-11-28T22:10:19.354Z,10.40
2018-11-28T22:12:48.292Z,10.40
2018-11-28T22:15:23.112Z,10.40
2018-11-28T22:17:55.811Z,10.40
2018-11-28T22:20:26.121Z,10.50
2018-11-28T22:22:54.872Z,10.50
2018-11-28T22:25:25.273Z,10.50
2018-11-28T22:27:54.027Z,10.50
2018-11-28T22:30:23.799Z,10.60
2018-11-28T22:32:52.559Z,10.50
2018-11-28T22:35:21.310Z,10.60
2018-11-28T22:37:49.982Z,10.60
2018-11-28T22:40:21.561Z,10.70
2018-11-28T22:42:50.464Z,10.70
2018-11-28T22:45:21.218Z,10.70
2018-11-28T22:47:49.845Z,10.70
2018-11-28T22:50:18.348Z,10.70
2018-11-28T22:52:46.738Z,10.80
2018-11-28T22:55:16.539Z,10.80
2018-11-28T22:57:45.013Z,10.80
2018-11-28T23:00:18.028Z,10.80
2018-11-28T23:02:52.203Z,10.80
2018-11-28T23:05:21.445Z,10.90
2018-11-28T23:07:49.862Z,10.90
2018-11-28T23:10:18.285Z,10.90
2018-11-28T23:12:46.694Z,10.90
2018-11-28T23:15:15.132Z,10.90
2018-11-28T23:17:43.544Z,10.90
2018-11-28T23:20:11.953Z,10.90
2018-11-28T23:22:40.347Z,11.00
2018-11-28T23:25:10.333Z,11.00
2018-11-28T23:27:38.737Z,10.90
2018-11-28T23:30:11.862Z,11.00
2018-11-28T23:32:40.254Z,11.00
2018-11-28T23:35:09.742Z,10.90
2018-11-28T23:37:38.462Z,11.00
2018-11-28T23:40:10.578Z,11.00
2018-11-28T23:42:38.974Z,11.00
2018-11-28T23:45:09.046Z,11.00
2018-11-28T23:47:37.740Z,11.00
2018-11-28T23:50:11.699Z,11.00
2018-11-28T23:52:40.111Z,11.00
2018-11-28T23:55:13.822Z,11.00
2018-11-28T23:57:42.247Z,11.00
